Point Farm, Vermont
Current Conditions -  °F | °C
As of 5:53 PM on Wednesday 22 Oct 2014 (Local Time) from KPBG Reporting Station
Broken Clouds Broken Clouds  
Wind Chill: 52°   Ceiling: 8000
Heat Index: 52°   Visibility: 10mi
Dew Point: 41°   Wind: 14mph
Humidity: 66%   Direction: 350°N
Pressure: 30.16"   Gusts: NA
Location:  44.717°N, 73.3067°W
Report Text: KPBG 222153Z AUTO 35012KT 10SM SCT065 BKN080 11/05 A3016 RMK AO2 SLP216 T01110050
Loading
Personal Weather Stations






























Interactive Weather Map
Tropical Storm Tracking
New forecast layout! Learn more

10-Day Weather Forecast

Advertisements
Track Severe Weather on mobile